Time;durP1;ratioP1;P1;durP2;ratioP2;P2;SDS_P1;SDS_P2;PMS_P1;PMS_P2;Temp;Humidity;BMP_temperature;BMP_pressure;BME280_temperature;BME280_humidity;BME280_pressure;Samples;Min_cycle;Max_cycle;Signal;HPM_P1;HPM_P2
2021/10/24 00:01:50;;;;;;;24.55;10.68;;;;;;;;;;5036550;28;20040;-86
2021/10/24 00:04:16;;;;;;;22.70;10.52;;;;;;;;;;5017820;28;20032;-87
2021/10/24 00:06:41;;;;;;;20.75;11.02;;;;;;;;;;5015837;28;20029;-87
2021/10/24 00:09:07;;;;;;;28.38;11.32;;;;;;;;;;5016546;28;20029;-86
2021/10/24 00:11:34;;;;;;;23.13;10.77;;;;;;;;;;5034302;28;20027;-87
2021/10/24 00:14:02;;;;;;;26.63;10.63;;;;;;;;;;5015358;28;20499;-87
2021/10/24 00:16:27;;;;;;;22.42;10.70;;;;;;;;;;5033803;28;20369;-87
2021/10/24 00:18:53;;;;;;;23.17;11.65;;;;;;;;;;5015778;28;20031;-86
2021/10/24 00:21:18;;;;;;;22.77;11.00;;;;;;;;;;5034395;28;20381;-86
2021/10/24 00:23:44;;;;;;;22.77;11.07;;;;;;;;;;5016925;28;20392;-86
2021/10/24 00:26:09;;;;;;;23.85;11.25;;;;;;;;;;5004200;28;20045;-86
2021/10/24 00:28:34;;;;;;;22.77;11.10;;;;;;;;;;5014269;28;20037;-86
2021/10/24 00:31:00;;;;;;;26.25;11.68;;;;;;;;;;4996537;28;20024;-86
2021/10/24 00:33:25;;;;;;;31.27;12.25;;;;;;;;;;5013922;28;20032;-86
2021/10/24 00:35:50;;;;;;;25.40;11.13;;;;;;;;;;5027675;28;20025;-87
2021/10/24 00:38:17;;;;;;;24.42;11.02;;;;;;;;;;5033751;28;20075;-86
2021/10/24 00:40:43;;;;;;;26.48;11.55;;;;;;;;;;5033903;28;20071;-86
2021/10/24 00:43:08;;;;;;;25.60;11.68;;;;;;;;;;5015857;28;20025;-87
2021/10/24 00:45:33;;;;;;;32.35;11.43;;;;;;;;;;5022945;28;20034;-87
2021/10/24 00:47:59;;;;;;;20.88;11.60;;;;;;;;;;4998456;28;20499;-87
2021/10/24 00:50:25;;;;;;;24.60;11.70;;;;;;;;;;4999372;28;20029;-86
2021/10/24 00:52:51;;;;;;;26.42;11.18;;;;;;;;;;5013590;28;20043;-87
2021/10/24 00:55:19;;;;;;;27.05;11.43;;;;;;;;;;5017629;28;20542;-86
2021/10/24 00:57:44;;;;;;;20.63;11.30;;;;;;;;;;5014599;28;20109;-86
2021/10/24 01:00:12;;;;;;;26.35;12.18;;;;;;;;;;4996556;28;20449;-86
2021/10/24 01:02:38;;;;;;;21.02;11.95;;;;;;;;;;5013676;28;20041;-86
2021/10/24 01:05:06;;;;;;;23.23;12.65;;;;;;;;;;4996139;28;20404;-86
2021/10/24 01:07:38;;;;;;;24.73;11.25;;;;;;;;;;5025648;28;20034;-87
2021/10/24 01:10:04;;;;;;;25.02;11.63;;;;;;;;;;5009507;28;20080;-86
2021/10/24 01:12:29;;;;;;;19.13;11.15;;;;;;;;;;4997190;28;20029;-86
2021/10/24 01:14:55;;;;;;;23.85;12.20;;;;;;;;;;5014063;28;20072;-86
2021/10/24 01:17:20;;;;;;;27.25;13.10;;;;;;;;;;5013539;28;20022;-86
2021/10/24 01:19:46;;;;;;;28.35;13.18;;;;;;;;;;5012272;28;20026;-86
2021/10/24 01:22:11;;;;;;;26.48;13.00;;;;;;;;;;5012993;28;20068;-87
2021/10/24 01:24:36;;;;;;;24.30;13.32;;;;;;;;;;5020087;28;20010;-87
2021/10/24 01:27:03;;;;;;;36.47;13.65;;;;;;;;;;5006586;28;20022;-86
2021/10/24 01:29:29;;;;;;;27.63;13.40;;;;;;;;;;5014381;28;20059;-86
2021/10/24 01:31:54;;;;;;;29.33;13.23;;;;;;;;;;5017204;28;20104;-86
2021/10/24 01:34:21;;;;;;;36.55;15.65;;;;;;;;;;5013534;28;20112;-86
2021/10/24 01:36:47;;;;;;;33.50;14.82;;;;;;;;;;5006092;28;20140;-86
2021/10/24 01:39:12;;;;;;;31.88;14.48;;;;;;;;;;5033864;28;20067;-87
2021/10/24 01:41:37;;;;;;;32.03;14.20;;;;;;;;;;5006683;28;20037;-86
2021/10/24 01:44:03;;;;;;;31.05;14.55;;;;;;;;;;4996295;28;20120;-86
2021/10/24 01:46:29;;;;;;;35.25;15.65;;;;;;;;;;4998608;28;20095;-87
2021/10/24 01:48:54;;;;;;;31.08;15.27;;;;;;;;;;5015410;28;20040;-86
2021/10/24 01:51:20;;;;;;;26.35;15.20;;;;;;;;;;4995950;28;20029;-86
2021/10/24 01:53:46;;;;;;;40.38;15.77;;;;;;;;;;5026320;28;20057;-86
2021/10/24 01:56:12;;;;;;;33.20;16.55;;;;;;;;;;5015465;28;20053;-86
2021/10/24 01:58:38;;;;;;;31.75;15.00;;;;;;;;;;5033166;28;20045;-86
2021/10/24 02:01:04;;;;;;;31.30;15.20;;;;;;;;;;5019087;28;20025;-86
2021/10/24 02:03:30;;;;;;;34.00;15.07;;;;;;;;;;5036620;28;20025;-86
2021/10/24 02:05:55;;;;;;;32.95;14.45;;;;;;;;;;5010252;28;20075;-87
2021/10/24 02:08:21;;;;;;;32.03;17.23;;;;;;;;;;5021392;28;20026;-86
2021/10/24 02:10:47;;;;;;;31.02;14.82;;;;;;;;;;5017008;28;20022;-86
2021/10/24 02:13:12;;;;;;;26.48;14.52;;;;;;;;;;4999222;28;20034;-86
2021/10/24 02:15:38;;;;;;;25.38;13.25;;;;;;;;;;4999188;28;20029;-86
2021/10/24 02:18:04;;;;;;;28.08;13.98;;;;;;;;;;4999900;28;20037;-86
2021/10/24 02:20:30;;;;;;;33.15;14.85;;;;;;;;;;4998890;28;20030;-86
2021/10/24 02:22:55;;;;;;;26.65;14.18;;;;;;;;;;4998771;28;20121;-86
2021/10/24 02:25:23;;;;;;;27.95;14.55;;;;;;;;;;4998808;28;20065;-86
2021/10/24 02:27:48;;;;;;;27.08;14.88;;;;;;;;;;4998545;28;20393;-86
2021/10/24 02:30:14;;;;;;;31.35;14.25;;;;;;;;;;4998616;28;20068;-86
2021/10/24 02:32:41;;;;;;;28.23;14.52;;;;;;;;;;4998460;28;20072;-86
2021/10/24 02:35:07;;;;;;;29.75;14.30;;;;;;;;;;5016015;28;20049;-86
2021/10/24 02:37:33;;;;;;;31.27;14.82;;;;;;;;;;4999892;28;20026;-87
2021/10/24 02:39:58;;;;;;;23.55;14.20;;;;;;;;;;5019230;28;20076;-86
2021/10/24 02:42:24;;;;;;;27.27;14.40;;;;;;;;;;4998349;28;20121;-86
2021/10/24 02:44:49;;;;;;;28.80;13.52;;;;;;;;;;5015871;28;20108;-86
2021/10/24 02:47:17;;;;;;;30.95;14.48;;;;;;;;;;4998234;28;20033;-86
2021/10/24 02:49:43;;;;;;;36.20;14.50;;;;;;;;;;5034390;28;20013;-86
2021/10/24 02:52:08;;;;;;;37.17;14.45;;;;;;;;;;5035515;28;20484;-86
2021/10/24 02:54:34;;;;;;;28.67;12.82;;;;;;;;;;5035527;28;20033;-86
2021/10/24 02:57:00;;;;;;;25.08;13.35;;;;;;;;;;5035390;28;20100;-86
2021/10/24 02:59:25;;;;;;;26.92;13.38;;;;;;;;;;5035522;28;20091;-86
2021/10/24 03:01:51;;;;;;;26.02;13.40;;;;;;;;;;5035357;28;20030;-86
2021/10/24 03:04:16;;;;;;;28.20;14.35;;;;;;;;;;5021178;28;20404;-86
2021/10/24 03:06:42;;;;;;;29.88;14.13;;;;;;;;;;5017714;28;20108;-86
2021/10/24 03:09:07;;;;;;;32.53;14.10;;;;;;;;;;5035184;28;20480;-86
2021/10/24 03:11:33;;;;;;;29.13;13.98;;;;;;;;;;5017101;28;20052;-86
2021/10/24 03:13:58;;;;;;;27.88;14.55;;;;;;;;;;5017398;28;20408;-86
2021/10/24 03:16:24;;;;;;;28.02;14.52;;;;;;;;;;5017574;28;20041;-86
2021/10/24 03:18:50;;;;;;;24.45;12.95;;;;;;;;;;5017956;28;20083;-86
2021/10/24 03:21:15;;;;;;;26.13;13.75;;;;;;;;;;5035421;28;20029;-86
2021/10/24 03:23:41;;;;;;;33.53;14.00;;;;;;;;;;5017278;28;20092;-86
2021/10/24 03:26:07;;;;;;;24.52;12.88;;;;;;;;;;5035319;28;20026;-86
2021/10/24 03:28:34;;;;;;;24.40;12.90;;;;;;;;;;5034873;28;20032;-86
2021/10/24 03:31:00;;;;;;;31.48;13.98;;;;;;;;;;5017060;28;20018;-86
2021/10/24 03:33:25;;;;;;;25.63;13.32;;;;;;;;;;5033480;28;20037;-87
2021/10/24 03:35:51;;;;;;;27.02;13.45;;;;;;;;;;5015893;28;20029;-86
2021/10/24 03:38:16;;;;;;;30.95;12.68;;;;;;;;;;5016998;28;20025;-86
2021/10/24 03:40:42;;;;;;;23.83;12.93;;;;;;;;;;5016965;28;20388;-86
2021/10/24 03:43:07;;;;;;;34.17;13.95;;;;;;;;;;5017096;28;20037;-87
2021/10/24 03:45:32;;;;;;;22.95;12.88;;;;;;;;;;5034529;28;20108;-86
2021/10/24 03:47:58;;;;;;;32.20;13.70;;;;;;;;;;5034550;28;20392;-86
2021/10/24 03:50:24;;;;;;;25.48;12.35;;;;;;;;;;5028585;28;20021;-86
2021/10/24 03:52:49;;;;;;;27.05;12.85;;;;;;;;;;5018223;28;20034;-86
2021/10/24 03:55:15;;;;;;;33.78;12.70;;;;;;;;;;5025980;28;20120;-86
2021/10/24 03:57:41;;;;;;;29.10;12.77;;;;;;;;;;5035366;28;20037;-86
2021/10/24 04:00:09;;;;;;;27.00;13.15;;;;;;;;;;5016663;28;20156;-86
2021/10/24 04:02:46;;;;;;;28.55;13.93;;;;;;;;;;5034134;28;20026;-86
2021/10/24 04:05:12;;;;;;;25.67;12.52;;;;;;;;;;5034279;28;20051;-86
2021/10/24 04:07:37;;;;;;;25.67;12.27;;;;;;;;;;5016228;28;20032;-86
2021/10/24 04:10:04;;;;;;;25.88;13.40;;;;;;;;;;5016480;28;20029;-86
2021/10/24 04:12:29;;;;;;;23.80;11.77;;;;;;;;;;5035485;28;20029;-86
2021/10/24 04:14:54;;;;;;;23.35;12.38;;;;;;;;;;5016850;28;20037;-86
2021/10/24 04:17:20;;;;;;;23.95;12.88;;;;;;;;;;5016510;28;20087;-86
2021/10/24 04:19:45;;;;;;;27.45;11.65;;;;;;;;;;5033962;28;20550;-86
2021/10/24 04:22:10;;;;;;;23.25;12.05;;;;;;;;;;5033406;28;20029;-87
2021/10/24 04:24:36;;;;;;;31.00;12.95;;;;;;;;;;5012100;28;20022;-87
2021/10/24 04:27:04;;;;;;;22.40;12.57;;;;;;;;;;5017654;28;20061;-86
2021/10/24 04:29:29;;;;;;;31.23;12.82;;;;;;;;;;5017373;28;20022;-86
2021/10/24 04:31:55;;;;;;;26.90;12.40;;;;;;;;;;5016268;28;20443;-86
2021/10/24 04:34:20;;;;;;;24.20;12.18;;;;;;;;;;5016350;28;20025;-86
2021/10/24 04:36:45;;;;;;;27.30;13.50;;;;;;;;;;5015218;28;20021;-86
2021/10/24 04:39:11;;;;;;;37.00;13.52;;;;;;;;;;5016897;28;20485;-86
2021/10/24 04:41:38;;;;;;;28.60;14.02;;;;;;;;;;5033553;28;20071;-86
2021/10/24 04:44:03;;;;;;;32.85;13.43;;;;;;;;;;5014789;28;20029;-87
2021/10/24 04:46:30;;;;;;;25.60;14.05;;;;;;;;;;5018319;28;20018;-86
2021/10/24 04:48:55;;;;;;;27.58;13.35;;;;;;;;;;4995724;28;20034;-86
2021/10/24 04:51:21;;;;;;;34.53;13.95;;;;;;;;;;5013280;28;20130;-86
2021/10/24 04:53:47;;;;;;;32.97;14.65;;;;;;;;;;5012375;28;20033;-86
2021/10/24 04:56:12;;;;;;;26.90;13.68;;;;;;;;;;5033757;28;20075;-86
2021/10/24 04:58:38;;;;;;;25.42;13.55;;;;;;;;;;5033797;28;20029;-86
2021/10/24 05:01:05;;;;;;;32.30;12.57;;;;;;;;;;5015663;28;20024;-86
2021/10/24 05:03:31;;;;;;;21.42;12.13;;;;;;;;;;5032908;28;20005;-87
2021/10/24 05:05:57;;;;;;;26.88;12.55;;;;;;;;;;5035101;28;20091;-86
2021/10/24 05:08:22;;;;;;;30.27;12.23;;;;;;;;;;5035281;28;20017;-86
2021/10/24 05:10:47;;;;;;;27.13;12.27;;;;;;;;;;5033912;28;20021;-86
2021/10/24 05:13:13;;;;;;;24.50;11.85;;;;;;;;;;5014073;28;20485;-86
2021/10/24 05:15:38;;;;;;;23.83;11.45;;;;;;;;;;5016014;28;20040;-86
2021/10/24 05:18:04;;;;;;;33.15;12.55;;;;;;;;;;5015757;28;20021;-86
2021/10/24 05:20:30;;;;;;;27.38;11.50;;;;;;;;;;5015383;28;20116;-86
2021/10/24 05:22:55;;;;;;;24.48;12.30;;;;;;;;;;5030938;28;20059;-87
2021/10/24 05:25:20;;;;;;;18.08;10.20;;;;;;;;;;5015359;28;20484;-86
2021/10/24 05:27:48;;;;;;;22.50;11.13;;;;;;;;;;5015306;28;20076;-86
2021/10/24 05:30:14;;;;;;;28.05;11.40;;;;;;;;;;5016074;28;20355;-86
2021/10/24 05:32:39;;;;;;;20.33;11.32;;;;;;;;;;5033109;28;20032;-86
2021/10/24 05:35:05;;;;;;;31.67;11.68;;;;;;;;;;5014739;28;20469;-86
2021/10/24 05:37:30;;;;;;;22.60;11.48;;;;;;;;;;5037206;28;20104;-86
2021/10/24 05:39:56;;;;;;;28.00;11.75;;;;;;;;;;5019266;28;20108;-86
2021/10/24 05:42:21;;;;;;;26.40;12.32;;;;;;;;;;5025158;28;20105;-86
2021/10/24 05:44:47;;;;;;;24.42;11.65;;;;;;;;;;5017079;28;20021;-86
2021/10/24 05:47:13;;;;;;;21.77;10.52;;;;;;;;;;5016876;28;20049;-86
2021/10/24 05:49:38;;;;;;;29.67;12.00;;;;;;;;;;5033870;28;20071;-86
2021/10/24 05:52:04;;;;;;;25.73;10.95;;;;;;;;;;5035451;28;20022;-87
2021/10/24 05:54:29;;;;;;;22.77;11.38;;;;;;;;;;5037174;28;20029;-86
2021/10/24 05:56:54;;;;;;;22.10;10.88;;;;;;;;;;5036592;28;20017;-87
2021/10/24 05:59:20;;;;;;;27.15;11.30;;;;;;;;;;5034324;28;20025;-87
2021/10/24 06:01:45;;;;;;;21.90;11.25;;;;;;;;;;5031518;28;20115;-86
2021/10/24 06:04:11;;;;;;;26.23;11.98;;;;;;;;;;5036405;28;20028;-86
2021/10/24 06:06:37;;;;;;;24.67;12.30;;;;;;;;;;5018639;28;20373;-85
2021/10/24 06:09:04;;;;;;;20.02;11.90;;;;;;;;;;5035939;28;20032;-86
2021/10/24 06:11:55;;;;;;;25.77;12.35;;;;;;;;;;5035476;28;20075;-86
2021/10/24 06:14:21;;;;;;;27.75;12.40;;;;;;;;;;5016171;28;20099;-85
2021/10/24 06:16:47;;;;;;;20.35;10.95;;;;;;;;;;5036343;28;20459;-85
2021/10/24 06:19:12;;;;;;;35.40;13.45;;;;;;;;;;5018465;28;20030;-85
2021/10/24 06:21:38;;;;;;;28.90;12.25;;;;;;;;;;5036069;28;20025;-85
2021/10/24 06:24:03;;;;;;;22.20;11.52;;;;;;;;;;5016747;28;20034;-86
2021/10/24 06:26:29;;;;;;;22.80;10.93;;;;;;;;;;5001828;28;20026;-85
2021/10/24 06:28:54;;;;;;;23.90;11.52;;;;;;;;;;5016176;28;20057;-85
2021/10/24 06:31:19;;;;;;;22.88;11.77;;;;;;;;;;4998894;28;20018;-85
2021/10/24 06:33:44;;;;;;;23.52;10.55;;;;;;;;;;5016306;28;20038;-85
2021/10/24 06:36:10;;;;;;;20.88;10.27;;;;;;;;;;5016758;28;20485;-85
2021/10/24 06:38:35;;;;;;;22.63;10.18;;;;;;;;;;5016864;28;20060;-85
2021/10/24 06:41:00;;;;;;;22.65;11.80;;;;;;;;;;5007486;28;20041;-85
2021/10/24 06:43:26;;;;;;;32.15;12.63;;;;;;;;;;5004869;28;20017;-85
2021/10/24 06:45:51;;;;;;;23.30;11.20;;;;;;;;;;5018253;28;20041;-85
2021/10/24 06:48:17;;;;;;;26.75;11.27;;;;;;;;;;5018181;28;20025;-85
2021/10/24 06:50:42;;;;;;;28.13;10.68;;;;;;;;;;5018024;28;20022;-85
2021/10/24 06:53:08;;;;;;;24.05;10.68;;;;;;;;;;5035591;28;20022;-85
2021/10/24 06:55:33;;;;;;;19.35;10.18;;;;;;;;;;5014724;28;20022;-86
2021/10/24 06:57:59;;;;;;;36.33;13.57;;;;;;;;;;5017770;28;20025;-84
2021/10/24 07:00:26;;;;;;;42.92;22.98;;;;;;;;;;5035278;28;20026;-85
2021/10/24 07:02:52;;;;;;;32.85;16.58;;;;;;;;;;5017425;28;20030;-84
2021/10/24 07:05:18;;;;;;;30.95;13.10;;;;;;;;;;5034970;28;20021;-85
2021/10/24 07:07:44;;;;;;;29.52;15.90;;;;;;;;;;5017478;28;20036;-84
2021/10/24 07:10:11;;;;;;;28.80;13.48;;;;;;;;;;5013507;28;20025;-85
2021/10/24 07:12:37;;;;;;;25.27;13.35;;;;;;;;;;4997524;28;20038;-86
2021/10/24 07:15:07;;;;;;;39.05;16.23;;;;;;;;;;5016042;28;20024;-86
2021/10/24 07:17:33;;;;;;;41.17;16.17;;;;;;;;;;4997709;28;20032;-85
2021/10/24 07:19:58;;;;;;;25.67;12.98;;;;;;;;;;5018867;28;20026;-86
2021/10/24 07:22:23;;;;;;;30.17;12.38;;;;;;;;;;5014241;28;20112;-86
2021/10/24 07:24:49;;;;;;;31.17;12.73;;;;;;;;;;5021531;28;20386;-86
2021/10/24 07:27:14;;;;;;;29.15;11.85;;;;;;;;;;5017240;28;20057;-86
2021/10/24 07:29:40;;;;;;;25.05;12.18;;;;;;;;;;5033768;28;20075;-86
2021/10/24 07:32:06;;;;;;;26.15;10.90;;;;;;;;;;5035076;28;20053;-86
2021/10/24 07:34:31;;;;;;;21.85;11.27;;;;;;;;;;5014811;28;20036;-86
2021/10/24 07:36:57;;;;;;;44.17;15.23;;;;;;;;;;5033438;28;20026;-87
2021/10/24 07:39:22;;;;;;;24.58;15.57;;;;;;;;;;5017221;28;20056;-85
2021/10/24 07:41:48;;;;;;;28.90;12.80;;;;;;;;;;5001005;28;20043;-85
2021/10/24 07:44:15;;;;;;;28.17;11.60;;;;;;;;;;4997490;28;20033;-85
2021/10/24 07:46:41;;;;;;;26.77;11.77;;;;;;;;;;5019187;28;20079;-85
2021/10/24 07:49:07;;;;;;;30.20;12.90;;;;;;;;;;5014972;28;20026;-85
2021/10/24 07:51:32;;;;;;;27.33;11.77;;;;;;;;;;4997499;28;20014;-86
2021/10/24 07:53:58;;;;;;;37.35;11.73;;;;;;;;;;4997154;28;20026;-85
2021/10/24 07:56:24;;;;;;;42.53;15.88;;;;;;;;;;5014545;28;20032;-85
2021/10/24 07:58:49;;;;;;;22.08;11.48;;;;;;;;;;5014202;28;20029;-85
2021/10/24 08:01:16;;;;;;;27.80;11.93;;;;;;;;;;5001754;28;20033;-85
2021/10/24 08:03:42;;;;;;;23.10;9.07;;;;;;;;;;5014995;28;20032;-85
2021/10/24 08:06:08;;;;;;;23.50;10.48;;;;;;;;;;4998084;28;20029;-85
2021/10/24 08:08:37;;;;;;;21.77;9.32;;;;;;;;;;5018174;28;20041;-86
2021/10/24 08:11:03;;;;;;;20.60;8.90;;;;;;;;;;5026007;28;20088;-85
2021/10/24 08:13:29;;;;;;;20.73;9.57;;;;;;;;;;5021236;28;20022;-85
2021/10/24 08:15:55;;;;;;;19.05;9.10;;;;;;;;;;4997109;28;20029;-85
2021/10/24 08:18:20;;;;;;;24.73;9.85;;;;;;;;;;5000827;28;20036;-86
2021/10/24 08:20:46;;;;;;;20.60;8.88;;;;;;;;;;5015509;28;20030;-85
2021/10/24 08:23:14;;;;;;;24.02;9.75;;;;;;;;;;5001369;28;20041;-85
2021/10/24 08:25:39;;;;;;;26.35;12.23;;;;;;;;;;5015153;28;20100;-85
2021/10/24 08:28:05;;;;;;;22.48;11.65;;;;;;;;;;5018893;28;20115;-85
2021/10/24 08:30:30;;;;;;;26.83;12.38;;;;;;;;;;4997479;28;20056;-85
2021/10/24 08:32:57;;;;;;;20.95;10.20;;;;;;;;;;5018415;28;20056;-85
2021/10/24 08:35:23;;;;;;;20.10;9.35;;;;;;;;;;5014640;28;20033;-85
2021/10/24 08:37:49;;;;;;;16.92;9.02;;;;;;;;;;5015120;28;20018;-84
2021/10/24 08:40:15;;;;;;;23.70;10.73;;;;;;;;;;5018502;28;20021;-85
2021/10/24 08:42:41;;;;;;;21.30;9.43;;;;;;;;;;5002736;28;20501;-85
2021/10/24 08:45:10;;;;;;;21.65;9.98;;;;;;;;;;5033983;28;20044;-85
2021/10/24 08:47:37;;;;;;;19.30;9.50;;;;;;;;;;5009261;28;20040;-86
2021/10/24 08:50:03;;;;;;;21.25;9.93;;;;;;;;;;5033177;28;20473;-86
2021/10/24 08:52:28;;;;;;;19.33;10.10;;;;;;;;;;5032467;28;20029;-86
2021/10/24 08:54:54;;;;;;;19.38;8.68;;;;;;;;;;5032180;28;20469;-87
2021/10/24 08:57:27;;;;;;;21.95;9.57;;;;;;;;;;5033401;28;20152;-86
2021/10/24 08:59:53;;;;;;;;;;;;;;;;;;5033049;28;20120;-86
2021/10/24 09:02:19;;;;;;;18.77;8.90;;;;;;;;;;5032350;28;20288;-87
2021/10/24 09:04:52;;;;;;;26.65;10.25;;;;;;;;;;5034331;28;20027;-86
2021/10/24 09:07:19;;;;;;;21.80;9.32;;;;;;;;;;5012599;28;20026;-88
2021/10/24 09:09:45;;;;;;;21.58;9.32;;;;;;;;;;5017356;28;20029;-85
2021/10/24 09:12:13;;;;;;;25.63;8.57;;;;;;;;;;5034226;28;20032;-85
2021/10/24 09:14:55;;;;;;;21.85;9.63;;;;;;;;;;5113028;27;20403;-86
2021/10/24 09:17:22;;;;;;;21.05;8.90;;;;;;;;;;5110978;28;20114;-85
2021/10/24 09:19:51;;;;;;;22.02;8.77;;;;;;;;;;5112444;28;20019;-86
2021/10/24 09:22:24;;;;;;;23.48;8.77;;;;;;;;;;5110224;28;20060;-86
2021/10/24 09:25:19;;;;;;;15.70;7.72;;;;;;;;;;5112039;27;20028;-86
2021/10/24 09:27:53;;;;;;;15.85;7.68;;;;;;;;;;5111078;28;20085;-86
2021/10/24 09:30:21;;;;;;;23.90;8.15;;;;;;;;;;5092328;28;20036;-85
2021/10/24 09:33:09;;;;;;;13.40;6.75;;;;;;;;;;5106243;28;20024;-85
2021/10/24 09:35:47;;;;;;;16.30;8.40;;;;;;;;;;5117192;28;20110;-86
2021/10/24 09:38:18;;;;;;;15.60;7.30;;;;;;;;;;5112627;28;20051;-85
2021/10/24 09:40:46;;;;;;;15.80;7.38;;;;;;;;;;5112526;28;20486;-86
2021/10/24 09:43:30;;;;;;;17.40;7.25;;;;;;;;;;5110094;28;20031;-86
2021/10/24 09:45:56;;;;;;;13.80;7.05;;;;;;;;;;5118655;28;20040;-86
2021/10/24 09:48:21;;;;;;;13.30;6.38;;;;;;;;;;5105109;28;20060;-85
2021/10/24 09:50:52;;;;;;;13.73;6.22;;;;;;;;;;5109378;28;20020;-89
2021/10/24 09:53:29;;;;;;;12.10;7.00;;;;;;;;;;5095224;28;20033;-86
2021/10/24 09:55:57;;;;;;;14.35;5.88;;;;;;;;;;5090666;28;20024;-85
2021/10/24 09:58:28;;;;;;;13.15;6.00;;;;;;;;;;5088875;28;20028;-85
2021/10/24 10:00:54;;;;;;;12.55;6.25;;;;;;;;;;5090254;28;20047;-85
2021/10/24 10:03:21;;;;;;;13.82;6.25;;;;;;;;;;5089837;28;20024;-86
2021/10/24 10:05:46;;;;;;;10.98;5.70;;;;;;;;;;5088216;28;20031;-85
2021/10/24 10:08:12;;;;;;;15.52;5.80;;;;;;;;;;5089618;28;20020;-86
2021/10/24 10:10:47;;;;;;;12.30;5.35;;;;;;;;;;5099778;28;20030;-83
2021/10/24 10:13:14;;;;;;;14.50;5.10;;;;;;;;;;5110803;28;20122;-84
2021/10/24 10:15:44;;;;;;;22.58;5.50;;;;;;;;;;5107329;28;20032;-85
2021/10/24 10:18:11;;;;;;;12.43;5.53;;;;;;;;;;5093703;28;20020;-85
2021/10/24 10:20:51;;;;;;;17.15;5.22;;;;;;;;;;5094441;28;20179;-85
2021/10/24 10:23:36;;;;;;;16.48;6.40;;;;;;;;;;5089557;28;20013;-86
2021/10/24 10:26:32;;;;;;;13.02;6.45;;;;;;;;;;5095208;28;20028;-85
2021/10/24 10:28:57;;;;;;;16.40;6.85;;;;;;;;;;5096284;28;20024;-85
2021/10/24 10:31:22;;;;;;;10.93;5.88;;;;;;;;;;5097899;28;20549;-84
2021/10/24 10:34:06;;;;;;;8.13;2.92;;;;;;;;;;5086789;28;20395;-84
2021/10/24 10:36:44;;;;;;;8.43;3.05;;;;;;;;;;5076266;28;20024;-85
2021/10/24 10:39:31;;;;;;;14.50;4.60;;;;;;;;;;5077989;28;20024;-84
2021/10/24 10:42:27;;;;;;;9.65;4.22;;;;;;;;;;5080089;28;20012;-87
2021/10/24 10:45:14;;;;;;;8.55;4.32;;;;;;;;;;5074981;28;20027;-85
2021/10/24 10:48:07;;;;;;;7.28;3.60;;;;;;;;;;5090294;28;20029;-86
2021/10/24 10:50:39;;;;;;;11.38;4.47;;;;;;;;;;5083252;28;20028;-87
2021/10/24 10:53:07;;;;;;;9.02;3.85;;;;;;;;;;5095787;28;20032;-84
2021/10/24 10:56:03;;;;;;;11.02;3.95;;;;;;;;;;5087588;28;20438;-86
2021/10/24 10:58:41;;;;;;;11.75;3.95;;;;;;;;;;4989144;28;20058;-86
2021/10/24 11:01:30;;;;;;;12.25;6.30;;;;;;;;;;5091003;28;20020;-85
2021/10/24 11:03:59;;;;;;;8.15;4.85;;;;;;;;;;5078964;28;20025;-85
2021/10/24 11:06:27;;;;;;;13.98;5.78;;;;;;;;;;5077997;28;20570;-85
2021/10/24 11:08:59;;;;;;;17.25;6.22;;;;;;;;;;5075244;28;20032;-85
2021/10/24 11:11:40;;;;;;;9.90;5.38;;;;;;;;;;5078729;28;20025;-85
2021/10/24 11:14:12;;;;;;;15.30;5.47;;;;;;;;;;5075973;28;20060;-85
2021/10/24 11:16:51;;;;;;;21.08;6.07;;;;;;;;;;5080562;28;20033;-84
2021/10/24 11:19:26;;;;;;;11.82;4.38;;;;;;;;;;5078746;28;20084;-85
2021/10/24 11:21:53;;;;;;;9.07;4.45;;;;;;;;;;5107544;28;20008;-84
2021/10/24 11:24:19;;;;;;;10.20;5.63;;;;;;;;;;5107497;28;20020;-85
2021/10/24 11:26:46;;;;;;;12.25;4.20;;;;;;;;;;5075825;28;20032;-84
2021/10/24 11:29:11;;;;;;;18.75;6.50;;;;;;;;;;5075979;28;20074;-84
2021/10/24 11:31:37;;;;;;;8.95;3.80;;;;;;;;;;5077001;28;20056;-84
2021/10/24 11:34:04;;;;;;;31.42;5.75;;;;;;;;;;5079816;28;20032;-85
2021/10/24 11:36:30;;;;;;;11.35;4.97;;;;;;;;;;5076025;28;20032;-84
2021/10/24 11:39:03;;;;;;;6.55;3.58;;;;;;;;;;5081619;28;20032;-84
2021/10/24 11:41:29;;;;;;;6.82;3.25;;;;;;;;;;5075494;28;20031;-85
2021/10/24 11:44:06;;;;;;;9.30;3.55;;;;;;;;;;5078517;28;20029;-84
2021/10/24 11:46:32;;;;;;;12.95;3.97;;;;;;;;;;5080591;28;20036;-86
2021/10/24 11:49:03;;;;;;;11.70;3.50;;;;;;;;;;5102453;28;20461;-85
2021/10/24 11:51:30;;;;;;;7.72;2.83;;;;;;;;;;5089923;28;20101;-85
2021/10/24 11:53:56;;;;;;;8.65;2.53;;;;;;;;;;5076005;28;20052;-85
2021/10/24 11:59:17;;;;;;;6.95;3.15;;;;;;;;;;5085278;28;20029;-85
2021/10/24 12:01:43;;;;;;;5.07;2.45;;;;;;;;;;5074452;28;20030;-86
2021/10/24 12:04:13;;;;;;;12.75;2.78;;;;;;;;;;5077441;28;20091;-87
2021/10/24 12:06:54;;;;;;;9.57;3.80;;;;;;;;;;5073688;28;20024;-86
2021/10/24 12:09:39;;;;;;;8.70;2.40;;;;;;;;;;5076641;28;20496;-86
2021/10/24 12:12:09;;;;;;;9.73;4.72;;;;;;;;;;5073125;28;20033;-86
2021/10/24 12:14:59;;;;;;;5.32;2.88;;;;;;;;;;5076280;28;20060;-86
2021/10/24 12:17:36;;;;;;;7.35;3.05;;;;;;;;;;5074254;28;20059;-86
2021/10/24 12:20:19;;;;;;;7.35;2.63;;;;;;;;;;5073183;28;20024;-86
2021/10/24 12:22:56;;;;;;;5.95;2.20;;;;;;;;;;5074667;28;20039;-86
2021/10/24 12:25:41;;;;;;;6.55;2.15;;;;;;;;;;5078577;28;20016;-86
2021/10/24 12:28:27;;;;;;;6.30;2.10;;;;;;;;;;5076810;28;20042;-86
2021/10/24 12:30:57;;;;;;;6.72;2.33;;;;;;;;;;5078118;28;20028;-86
2021/10/24 12:33:30;;;;;;;6.90;2.20;;;;;;;;;;5074674;28;20025;-86
2021/10/24 12:36:00;;;;;;;12.75;5.68;;;;;;;;;;5077650;28;20047;-86
2021/10/24 12:38:55;;;;;;;24.92;10.90;;;;;;;;;;5072785;28;20070;-86
2021/10/24 12:41:46;;;;;;;8.25;3.00;;;;;;;;;;5073973;28;20024;-86
2021/10/24 12:44:23;;;;;;;8.52;2.30;;;;;;;;;;5079714;28;20020;-86
2021/10/24 12:46:53;;;;;;;5.78;2.58;;;;;;;;;;5094948;28;20024;-86
2021/10/24 12:49:22;;;;;;;6.45;2.08;;;;;;;;;;5076380;28;20165;-86
2021/10/24 12:51:50;;;;;;;7.28;3.15;;;;;;;;;;5071911;28;20515;-86
2021/10/24 12:54:29;;;;;;;7.53;2.40;;;;;;;;;;5077902;28;20454;-84
2021/10/24 12:56:55;;;;;;;5.05;2.40;;;;;;;;;;5078501;28;20051;-86
2021/10/24 12:59:20;;;;;;;8.23;3.40;;;;;;;;;;5081984;28;20479;-86
2021/10/24 13:01:47;;;;;;;8.98;2.30;;;;;;;;;;5084376;28;20036;-85
2021/10/24 13:04:13;;;;;;;4.93;1.75;;;;;;;;;;5075572;28;20020;-85
2021/10/24 13:06:38;;;;;;;9.68;2.47;;;;;;;;;;5076576;28;20027;-85
2021/10/24 13:09:03;;;;;;;6.25;2.00;;;;;;;;;;5074084;28;20029;-84
2021/10/24 13:11:29;;;;;;;6.47;2.58;;;;;;;;;;5075937;28;20077;-84
2021/10/24 13:13:55;;;;;;;3.67;2.13;;;;;;;;;;5074716;28;20032;-85
2021/10/24 13:16:21;;;;;;;5.72;2.35;;;;;;;;;;5075732;28;20063;-84
2021/10/24 13:18:46;;;;;;;6.50;2.92;;;;;;;;;;5077922;28;20032;-85
2021/10/24 13:22:54;;;;;;;3.95;2.42;;;;;;;;;;5074820;28;20028;-84
2021/10/24 13:24:09;;;;;;;6.22;2.25;;;;;;;;;;5077306;28;20032;-85
2021/10/24 13:26:37;;;;;;;5.30;2.67;;;;;;;;;;5074200;28;20031;-86
2021/10/24 13:29:03;;;;;;;5.30;2.50;;;;;;;;;;5076101;28;20052;-84
2021/10/24 13:31:29;;;;;;;6.22;2.60;;;;;;;;;;5074981;28;20052;-85
2021/10/24 13:33:55;;;;;;;6.22;2.45;;;;;;;;;;5078091;28;20063;-85
2021/10/24 13:36:23;;;;;;;9.07;2.75;;;;;;;;;;5074401;28;20074;-86
2021/10/24 13:38:49;;;;;;;8.07;2.70;;;;;;;;;;5074087;28;20016;-85
2021/10/24 13:41:14;;;;;;;11.20;3.25;;;;;;;;;;5080696;28;20108;-85
2021/10/24 13:43:39;;;;;;;4.22;1.95;;;;;;;;;;5077066;28;20020;-85
2021/10/24 13:46:06;;;;;;;8.15;2.35;;;;;;;;;;5078132;28;20032;-85
2021/10/24 13:48:31;;;;;;;4.82;1.92;;;;;;;;;;5075462;28;20033;-84
2021/10/24 13:50:56;;;;;;;14.80;2.65;;;;;;;;;;5076913;28;20107;-85
2021/10/24 13:53:22;;;;;;;11.10;2.50;;;;;;;;;;5073513;28;20086;-85
2021/10/24 13:55:51;;;;;;;5.95;2.35;;;;;;;;;;5076133;28;20035;-85
2021/10/24 13:58:16;;;;;;;6.07;1.88;;;;;;;;;;5074656;28;20028;-85
2021/10/24 14:00:45;;;;;;;4.70;2.40;;;;;;;;;;5075872;28;20549;-85
2021/10/24 14:03:10;;;;;;;11.15;2.55;;;;;;;;;;5091892;28;20434;-85
2021/10/24 14:05:37;;;;;;;5.00;2.42;;;;;;;;;;5076898;28;20028;-86
2021/10/24 14:08:03;;;;;;;6.22;2.25;;;;;;;;;;5077728;28;20024;-84
2021/10/24 14:10:30;;;;;;;11.30;4.35;;;;;;;;;;5076089;28;20052;-85
2021/10/24 14:12:56;;;;;;;5.93;2.13;;;;;;;;;;5077373;28;20028;-85
2021/10/24 14:15:21;;;;;;;9.15;2.42;;;;;;;;;;5078103;28;20051;-85
2021/10/24 14:17:48;;;;;;;6.97;2.25;;;;;;;;;;5076078;28;20028;-85
2021/10/24 14:20:14;;;;;;;3.65;2.17;;;;;;;;;;5075558;28;20503;-85
2021/10/24 14:22:39;;;;;;;4.55;2.00;;;;;;;;;;5075201;28;20021;-85
2021/10/24 14:25:06;;;;;;;5.50;2.10;;;;;;;;;;5075120;28;20111;-85
2021/10/24 14:27:31;;;;;;;4.72;2.28;;;;;;;;;;5075211;28;20127;-86
2021/10/24 14:29:56;;;;;;;4.55;1.98;;;;;;;;;;5075266;28;20111;-85
2021/10/24 14:32:22;;;;;;;6.45;3.20;;;;;;;;;;5075555;28;20082;-85
2021/10/24 14:34:47;;;;;;;5.45;2.28;;;;;;;;;;5078903;28;20032;-85